aviador You're here:

CYDN Decoded Metar

DAUPHIN in MB, CANADA
Report Time2017-08-16 19:00:00
UTC Time2017-08-16 19:29:52
Flight Rules vfr VFR
Wind310° at 05 kt
W.Decomp.*RWY 32: 4.8 kt HW 1.5 kt LCW
RWY 26: 3.7 kt HW 3.4 kt RCW
RWY 02: 1.1 kt HW 4.9 kt LCW
W.Rank310° ranks 29
Current wind is below 310° avg. (7.1)
Visibility9999 m
Phenomena:N/A
Clouds:N/A
Expected CloudBase > 6,000 ft AGL from Temp-Dew spread
CeilingNone
Temp25°C (ISA +12)
Dew Point10°C (39% RH)
AAT23.3°C
QNH1011 hPa
Density Alt2,621 ft
Elevation1,001 ft
Report Wrong Elevation
Raw Report
CYDN 161900Z AUTO 31005KT 270V330 9SM CLR 25/10 A2986 RMK SLP116
DENSITY ALT 2400FT=

Extra information for CYDN:More info

Metar Taf Metar & Taf Last 4 Metars F.Rules Stats Wind Profile Meteogram Temp Stats Airport Information Weather charts Add Link Nearby VenuesMetar ALERT Operation Metar Decoded Social comments